Time;durP1;ratioP1;P1;durP2;ratioP2;P2;SDS_P1;SDS_P2;PMS_P1;PMS_P2;Temp;Humidity;BMP_temperature;BMP_pressure;BME280_temperature;BME280_humidity;BME280_pressure;Samples;Min_cycle;Max_cycle;Signal;HPM_P1;HPM_P2
2023/12/15 00:00:21;;;;;;;29.60;14.52;;;6.10;99.90;;;;;;5100317;27;20082;-60
2023/12/15 00:02:47;;;;;;;28.30;14.98;;;6.20;99.90;;;;;;5116554;27;20038;-60
2023/12/15 00:05:13;;;;;;;27.52;15.10;;;6.10;99.90;;;;;;5117484;27;20099;-60
2023/12/15 00:07:39;;;;;;;26.83;14.57;;;6.20;99.90;;;;;;5099964;27;20078;-60
2023/12/15 00:10:06;;;;;;;32.50;17.02;;;6.20;99.90;;;;;;5115956;27;20043;-59
2023/12/15 00:12:32;;;;;;;32.33;15.73;;;6.20;99.90;;;;;;5100335;27;20066;-60
2023/12/15 00:14:59;;;;;;;28.30;15.38;;;6.30;99.90;;;;;;5117563;27;20043;-60
2023/12/15 00:17:25;;;;;;;34.25;17.15;;;6.20;99.90;;;;;;5116651;27;20069;-60
2023/12/15 00:19:52;;;;;;;33.88;18.13;;;6.20;99.90;;;;;;5117593;27;20373;-60
2023/12/15 00:22:18;;;;;;;35.42;17.33;;;6.30;99.90;;;;;;5117454;27;20043;-59
2023/12/15 00:24:45;;;;;;;34.88;16.50;;;6.30;99.90;;;;;;5115457;27;20564;-60
2023/12/15 00:27:11;;;;;;;27.10;16.00;;;6.30;99.90;;;;;;5117470;27;20429;-60
2023/12/15 00:29:37;;;;;;;33.45;17.70;;;6.30;99.90;;;;;;5116995;27;20041;-60
2023/12/15 00:32:04;;;;;;;38.88;17.85;;;6.30;99.90;;;;;;5116707;27;20042;-60
2023/12/15 00:34:29;;;;;;;31.45;16.60;;;6.30;99.90;;;;;;5116777;27;20039;-60
2023/12/15 00:36:57;;;;;;;38.05;18.58;;;6.40;99.90;;;;;;5116608;27;20035;-60
2023/12/15 00:39:23;;;;;;;38.90;18.77;;;6.30;99.90;;;;;;5116363;27;20047;-59
2023/12/15 00:41:51;;;;;;;38.45;19.42;;;6.40;99.90;;;;;;5117043;27;20433;-60
2023/12/15 00:44:16;;;;;;;37.58;17.55;;;6.40;99.90;;;;;;5115923;27;20077;-60
2023/12/15 00:46:42;;;;;;;39.63;19.88;;;6.40;99.90;;;;;;5116832;27;20480;-60
2023/12/15 00:49:08;;;;;;;34.28;19.92;;;6.40;99.90;;;;;;5116385;27;20094;-60
2023/12/15 00:51:34;;;;;;;34.95;20.13;;;6.40;99.90;;;;;;5115742;27;20039;-60
2023/12/15 00:54:01;;;;;;;32.65;19.23;;;6.40;99.90;;;;;;5117065;27;20035;-60
2023/12/15 00:56:27;;;;;;;41.70;22.50;;;6.40;99.90;;;;;;5116595;27;20051;-60
2023/12/15 00:58:53;;;;;;;42.97;22.60;;;6.40;99.90;;;;;;5134051;27;20122;-60
2023/12/15 01:01:19;;;;;;;42.05;22.52;;;6.40;99.90;;;;;;5116246;27;20050;-60
2023/12/15 01:03:44;;;;;;;39.40;22.13;;;6.40;99.90;;;;;;5116313;27;20502;-60
2023/12/15 01:06:10;;;;;;;37.17;22.98;;;6.40;99.90;;;;;;5133341;27;20042;-60
2023/12/15 01:08:36;;;;;;;45.92;24.35;;;6.40;99.90;;;;;;5115882;27;20129;-60
2023/12/15 01:11:01;;;;;;;37.30;22.23;;;6.40;99.90;;;;;;5116438;27;20078;-60
2023/12/15 01:13:27;;;;;;;48.03;26.63;;;6.30;99.90;;;;;;5115577;27;20047;-60
2023/12/15 01:15:53;;;;;;;36.67;23.00;;;6.40;99.90;;;;;;5116222;27;20046;-60
2023/12/15 01:18:19;;;;;;;55.97;27.35;;;6.40;99.90;;;;;;5116119;27;20083;-60
2023/12/15 01:20:45;;;;;;;46.25;25.17;;;6.40;99.90;;;;;;5133490;27;20507;-59
2023/12/15 01:23:11;;;;;;;62.58;29.38;;;6.40;99.90;;;;;;5116293;27;20039;-60
2023/12/15 01:25:37;;;;;;;50.83;27.75;;;6.50;99.90;;;;;;5098405;27;20071;-60
2023/12/15 01:28:03;;;;;;;44.08;23.83;;;6.40;99.90;;;;;;5115043;27;20042;-60
2023/12/15 01:30:28;;;;;;;54.42;28.13;;;6.40;99.90;;;;;;5115743;27;20054;-60
2023/12/15 01:32:54;;;;;;;66.35;29.13;;;6.50;99.90;;;;;;5115855;27;20042;-59
2023/12/15 01:35:20;;;;;;;57.90;29.25;;;6.50;99.90;;;;;;5114629;27;20043;-59
2023/12/15 01:37:46;;;;;;;37.25;21.45;;;6.40;99.90;;;;;;5114679;27;20408;-60
2023/12/15 01:40:12;;;;;;;37.47;21.85;;;6.40;99.90;;;;;;5115702;27;20047;-60
2023/12/15 01:42:37;;;;;;;51.97;27.75;;;6.50;99.90;;;;;;5133636;27;20042;-59
2023/12/15 01:45:04;;;;;;;62.80;29.42;;;6.50;99.90;;;;;;5115778;27;20035;-59
2023/12/15 01:47:31;;;;;;;57.97;27.17;;;6.50;99.90;;;;;;5097488;27;20081;-59
2023/12/15 01:49:57;;;;;;;51.08;26.42;;;6.40;99.90;;;;;;5115429;27;20039;-60
2023/12/15 01:52:23;;;;;;;62.78;29.35;;;6.40;99.90;;;;;;5115092;27;20075;-60
2023/12/15 01:54:49;;;;;;;67.40;30.27;;;6.40;99.90;;;;;;5114493;27;20077;-59
2023/12/15 01:57:15;;;;;;;39.65;22.90;;;6.40;99.90;;;;;;5133631;27;20038;-59
2023/12/15 01:59:45;;;;;;;58.92;30.17;;;6.40;99.90;;;;;;5114921;27;20051;-60
2023/12/15 02:02:11;;;;;;;83.60;36.67;;;6.30;99.90;;;;;;5097085;27;20042;-60
2023/12/15 02:04:38;;;;;;;34.20;19.98;;;6.30;99.90;;;;;;5097997;27;20035;-60
2023/12/15 02:07:03;;;;;;;33.67;19.65;;;6.20;99.90;;;;;;5114733;27;20042;-60
2023/12/15 02:09:30;;;;;;;47.38;25.30;;;6.20;99.90;;;;;;5113937;27;20106;-59
2023/12/15 02:11:56;;;;;;;34.80;18.90;;;6.10;99.90;;;;;;5115393;27;20043;-60
2023/12/15 02:14:23;;;;;;;45.00;24.10;;;6.10;99.90;;;;;;5115305;27;20049;-59
2023/12/15 02:16:48;;;;;;;40.53;24.00;;;6.20;99.90;;;;;;5114052;27;20047;-59
2023/12/15 02:19:14;;;;;;;51.28;26.25;;;6.20;99.90;;;;;;5114860;27;20107;-60
2023/12/15 02:21:40;;;;;;;37.17;20.98;;;6.10;99.90;;;;;;5114725;27;20046;-60
2023/12/15 02:24:06;;;;;;;37.22;21.48;;;6.10;99.90;;;;;;5114466;27;20476;-60
2023/12/15 02:26:32;;;;;;;39.25;19.95;;;6.20;99.90;;;;;;5114381;28;20039;-60
2023/12/15 02:28:59;;;;;;;41.25;22.67;;;6.10;99.90;;;;;;5115059;27;20050;-60
2023/12/15 02:31:25;;;;;;;33.80;20.85;;;6.10;99.90;;;;;;5113840;27;20480;-60
2023/12/15 02:33:53;;;;;;;34.13;20.15;;;6.00;99.90;;;;;;5114604;27;20039;-59
2023/12/15 02:36:22;;;;;;;29.98;18.48;;;6.00;99.90;;;;;;5114831;27;20074;-59
2023/12/15 02:38:49;;;;;;;46.58;22.70;;;6.00;99.90;;;;;;5132326;27;20043;-59
2023/12/15 02:41:15;;;;;;;33.80;19.15;;;5.90;99.90;;;;;;5114250;27;20039;-60
2023/12/15 02:43:40;;;;;;;30.33;17.40;;;5.90;99.90;;;;;;5096899;28;20042;-59
2023/12/15 02:46:12;;;;;;;20.73;13.20;;;5.80;99.90;;;;;;5114778;28;20039;-59
2023/12/15 02:48:38;;;;;;;25.80;16.27;;;5.80;99.90;;;;;;5114323;28;20068;-60
2023/12/15 02:51:04;;;;;;;29.65;18.13;;;5.80;99.90;;;;;;5114139;28;20049;-60
2023/12/15 02:53:32;;;;;;;28.55;19.50;;;5.70;99.90;;;;;;5114423;28;20074;-59
2023/12/15 02:56:00;;;;;;;24.25;15.73;;;5.70;99.90;;;;;;5097758;28;20396;-60
2023/12/15 02:58:25;;;;;;;16.25;10.68;;;5.60;99.90;;;;;;5113328;28;20077;-59
2023/12/15 03:00:51;;;;;;;20.42;13.32;;;5.60;99.90;;;;;;5114340;28;20055;-59
2023/12/15 03:03:17;;;;;;;24.95;13.38;;;5.60;99.90;;;;;;5114187;28;20416;-59
2023/12/15 03:05:43;;;;;;;26.38;17.25;;;5.50;99.90;;;;;;5113636;28;20035;-59
2023/12/15 03:08:09;;;;;;;20.73;13.77;;;5.40;99.90;;;;;;5114285;28;20043;-59
2023/12/15 03:10:35;;;;;;;24.90;15.98;;;5.40;99.90;;;;;;5114250;28;20051;-59
2023/12/15 03:13:02;;;;;;;26.63;16.58;;;5.50;99.90;;;;;;5113831;28;20092;-59
2023/12/15 03:15:28;;;;;;;23.13;15.52;;;5.40;99.90;;;;;;5114467;28;20819;-59
2023/12/15 03:17:56;;;;;;;23.60;14.15;;;5.40;99.90;;;;;;5113952;28;20047;-59
2023/12/15 03:20:22;;;;;;;20.42;13.25;;;5.40;99.90;;;;;;5093135;28;20051;-59
2023/12/15 03:22:48;;;;;;;21.58;12.57;;;5.30;99.90;;;;;;5108111;28;20376;-60
2023/12/15 03:25:14;;;;;;;24.90;15.80;;;5.30;99.90;;;;;;5114143;28;20071;-59
2023/12/15 03:27:39;;;;;;;22.27;14.80;;;5.20;99.90;;;;;;5113483;28;20043;-60
2023/12/15 03:30:06;;;;;;;23.38;12.98;;;5.20;99.90;;;;;;5114149;28;20051;-60
2023/12/15 03:32:32;;;;;;;19.65;10.95;;;5.20;99.90;;;;;;5113714;28;20072;-60
2023/12/15 03:35:00;;;;;;;19.25;11.88;;;5.20;99.90;;;;;;5113786;28;20077;-59
2023/12/15 03:37:25;;;;;;;20.00;12.65;;;5.20;99.90;;;;;;5114007;28;20122;-59
2023/12/15 03:39:51;;;;;;;20.48;12.63;;;5.20;99.90;;;;;;5112833;28;20126;-59
2023/12/15 03:42:17;;;;;;;26.13;14.32;;;5.20;99.90;;;;;;5113866;28;20088;-59
2023/12/15 03:44:43;;;;;;;24.85;13.25;;;5.20;99.90;;;;;;5097455;28;20072;-59
2023/12/15 03:47:09;;;;;;;21.80;12.73;;;5.20;99.90;;;;;;5113154;28;20050;-59
2023/12/15 03:49:35;;;;;;;22.45;12.48;;;5.10;99.90;;;;;;5114077;28;20074;-59
2023/12/15 03:52:02;;;;;;;22.80;12.02;;;5.10;99.90;;;;;;5114468;28;20146;-59
2023/12/15 03:54:27;;;;;;;21.55;13.18;;;5.10;99.90;;;;;;5113011;28;20721;-59
2023/12/15 03:56:57;;;;;;;22.48;12.55;;;5.10;99.90;;;;;;5132283;28;20130;-60
2023/12/15 03:59:23;;;;;;;21.85;12.40;;;5.00;99.90;;;;;;5113291;28;20046;-60
2023/12/15 04:01:49;;;;;;;20.92;12.25;;;5.10;99.90;;;;;;5116771;27;20484;-59
2023/12/15 04:04:15;;;;;;;23.45;10.35;;;5.10;99.90;;;;;;5117456;27;20068;-60
2023/12/15 04:06:40;;;;;;;16.77;10.00;;;5.20;99.90;;;;;;5135756;27;20114;-59
2023/12/15 04:09:09;;;;;;;18.58;10.77;;;5.10;99.90;;;;;;5099860;27;20046;-59
2023/12/15 04:11:38;;;;;;;18.05;9.57;;;5.00;99.90;;;;;;5117376;27;20100;-59
2023/12/15 04:14:04;;;;;;;18.60;9.73;;;5.00;99.90;;;;;;5117730;27;20117;-59
2023/12/15 04:16:30;;;;;;;21.13;10.45;;;5.00;99.90;;;;;;5116213;27;20043;-59
2023/12/15 04:18:59;;;;;;;19.35;10.32;;;4.90;99.90;;;;;;5117151;27;20039;-60
2023/12/15 04:21:25;;;;;;;19.63;11.13;;;5.00;99.90;;;;;;5117361;27;20604;-59
2023/12/15 04:23:51;;;;;;;17.02;10.00;;;5.00;99.90;;;;;;5116502;27;20122;-59
2023/12/15 04:26:18;;;;;;;20.95;10.23;;;5.00;99.90;;;;;;5116883;27;20039;-59
2023/12/15 04:28:43;;;;;;;21.02;9.57;;;5.00;99.90;;;;;;5117037;27;20071;-59
2023/12/15 04:31:15;;;;;;;25.10;10.98;;;5.00;99.90;;;;;;5116378;27;20552;-59
2023/12/15 04:33:41;;;;;;;18.40;8.63;;;4.90;99.90;;;;;;5117418;27;20477;-59
2023/12/15 04:36:11;;;;;;;19.65;9.95;;;4.90;99.90;;;;;;5116403;27;20047;-59
2023/12/15 04:38:37;;;;;;;15.30;8.70;;;4.90;99.90;;;;;;5116560;27;20039;-60
2023/12/15 04:41:03;;;;;;;18.05;8.70;;;4.90;99.90;;;;;;5117158;27;20047;-59
2023/12/15 04:43:29;;;;;;;13.73;8.50;;;4.90;99.90;;;;;;5099043;27;20110;-59
2023/12/15 04:45:55;;;;;;;28.52;11.27;;;4.80;99.90;;;;;;5116233;27;20095;-59
2023/12/15 04:48:21;;;;;;;16.55;8.20;;;4.80;99.90;;;;;;5116371;27;20047;-59
2023/12/15 04:50:46;;;;;;;16.92;8.50;;;4.80;99.90;;;;;;5115718;27;20404;-59
2023/12/15 04:53:12;;;;;;;18.70;8.25;;;4.70;99.90;;;;;;5116707;27;20047;-59
2023/12/15 04:55:39;;;;;;;18.77;8.20;;;4.70;99.90;;;;;;5116493;27;20043;-59
2023/12/15 04:58:06;;;;;;;16.90;8.63;;;4.70;99.90;;;;;;5116162;27;20515;-59
2023/12/15 05:00:33;;;;;;;22.23;8.85;;;4.70;99.90;;;;;;5115882;27;20515;-59
2023/12/15 05:02:59;;;;;;;14.48;7.70;;;4.70;99.90;;;;;;5116401;27;20050;-59
2023/12/15 05:05:25;;;;;;;23.08;8.43;;;4.70;99.90;;;;;;5115555;27;20051;-59
2023/12/15 05:07:51;;;;;;;16.73;7.70;;;4.80;99.90;;;;;;5116158;27;20042;-59
2023/12/15 05:10:16;;;;;;;15.27;7.43;;;4.70;99.90;;;;;;5134694;27;20043;-59
2023/12/15 05:12:42;;;;;;;17.05;8.10;;;4.80;99.90;;;;;;5114320;27;20035;-59
2023/12/15 05:15:08;;;;;;;14.30;6.15;;;4.80;99.90;;;;;;5116101;27;20130;-59
2023/12/15 05:17:34;;;;;;;12.80;5.30;;;4.70;99.90;;;;;;5116164;27;20047;-59
2023/12/15 05:20:02;;;;;;;18.15;7.47;;;4.70;99.90;;;;;;5115565;27;20047;-59
2023/12/15 05:22:28;;;;;;;15.77;5.80;;;4.60;99.90;;;;;;5115856;27;20251;-59
2023/12/15 05:24:53;;;;;;;14.60;4.68;;;4.60;99.90;;;;;;5115962;27;20504;-59
2023/12/15 05:27:19;;;;;;;11.85;4.32;;;4.60;99.90;;;;;;5114980;27;20118;-59
2023/12/15 05:29:46;;;;;;;12.00;4.47;;;4.50;99.90;;;;;;5115588;27;20034;-60
2023/12/15 05:32:12;;;;;;;8.40;3.80;;;4.50;99.90;;;;;;5134060;27;20035;-59
2023/12/15 05:34:38;;;;;;;13.73;4.50;;;4.50;99.90;;;;;;5115087;27;20104;-59
2023/12/15 05:37:04;;;;;;;10.90;4.18;;;4.50;99.90;;;;;;5116377;27;20392;-59
2023/12/15 05:39:30;;;;;;;13.73;5.15;;;4.40;99.90;;;;;;5114623;27;20047;-59
2023/12/15 05:41:56;;;;;;;10.13;4.00;;;4.50;99.90;;;;;;5115859;27;20050;-59
2023/12/15 05:44:22;;;;;;;14.32;4.03;;;4.50;99.90;;;;;;5098534;27;20526;-59
2023/12/15 05:46:49;;;;;;;14.77;4.53;;;4.50;99.90;;;;;;5114827;27;20125;-59
2023/12/15 05:49:15;;;;;;;8.48;3.65;;;4.40;99.90;;;;;;5115744;27;20043;-59
2023/12/15 05:51:47;;;;;;;11.20;3.85;;;4.40;99.90;;;;;;5115216;27;20039;-59
2023/12/15 05:54:13;;;;;;;9.27;3.70;;;4.40;99.90;;;;;;5115092;27;20082;-59
2023/12/15 05:56:39;;;;;;;11.02;4.43;;;4.30;99.90;;;;;;5115570;27;20068;-59
2023/12/15 05:59:04;;;;;;;14.27;5.40;;;4.30;99.90;;;;;;5115547;27;20079;-59
2023/12/15 06:01:30;;;;;;;9.27;3.53;;;4.30;99.90;;;;;;5114108;27;20448;-59
2023/12/15 06:03:56;;;;;;;9.25;3.83;;;4.20;99.90;;;;;;5098813;27;20049;-59
2023/12/15 06:06:22;;;;;;;17.00;4.38;;;4.30;99.90;;;;;;5097981;27;20042;-59
2023/12/15 06:08:48;;;;;;;9.82;3.40;;;4.30;99.90;;;;;;5114286;27;20074;-59
2023/12/15 06:11:13;;;;;;;12.00;3.65;;;4.30;99.90;;;;;;5115093;27;20043;-59
2023/12/15 06:13:41;;;;;;;14.65;4.57;;;4.30;99.90;;;;;;5115145;27;20126;-59
2023/12/15 06:16:07;;;;;;;8.90;2.58;;;4.30;99.90;;;;;;5114144;27;20118;-59
2023/12/15 06:18:35;;;;;;;8.43;3.25;;;4.30;99.90;;;;;;5114058;27;20044;-59
2023/12/15 06:21:01;;;;;;;12.07;4.05;;;4.30;99.90;;;;;;5098412;27;20035;-59
2023/12/15 06:23:27;;;;;;;16.88;4.07;;;4.30;99.90;;;;;;5113659;27;20586;-59
2023/12/15 06:25:53;;;;;;;8.30;3.17;;;4.30;99.90;;;;;;5114988;27;20057;-59
2023/12/15 06:28:19;;;;;;;9.68;3.75;;;4.40;99.90;;;;;;5114899;27;20043;-59
2023/12/15 06:30:45;;;;;;;18.48;5.43;;;4.50;99.90;;;;;;5113451;27;20541;-59
2023/12/15 06:33:11;;;;;;;11.30;3.50;;;4.50;99.90;;;;;;5114318;27;20043;-59
2023/12/15 06:35:37;;;;;;;11.43;4.28;;;4.60;99.90;;;;;;5114412;28;20054;-59
2023/12/15 06:38:02;;;;;;;11.20;3.90;;;4.60;99.90;;;;;;5114940;28;20069;-59
2023/12/15 06:40:28;;;;;;;19.08;5.80;;;4.50;99.90;;;;;;5110991;28;20364;-59
2023/12/15 06:42:54;;;;;;;15.38;4.35;;;4.60;99.90;;;;;;5084808;27;20058;-60
2023/12/15 06:45:19;;;;;;;18.10;5.55;;;4.40;99.90;;;;;;5112643;28;20042;-59
2023/12/15 06:47:45;;;;;;;11.50;3.47;;;4.50;99.90;;;;;;5114403;28;20051;-59
2023/12/15 06:50:11;;;;;;;10.82;4.20;;;4.50;99.90;;;;;;5113451;28;20434;-59
2023/12/15 06:52:36;;;;;;;14.98;4.30;;;4.70;99.90;;;;;;5113708;28;20452;-60
2023/12/15 06:55:03;;;;;;;11.68;4.13;;;4.60;99.90;;;;;;5114430;28;20039;-59
2023/12/15 06:57:29;;;;;;;10.80;3.67;;;4.50;99.90;;;;;;5096042;28;20039;-59
2023/12/15 06:59:55;;;;;;;12.48;3.95;;;4.60;99.90;;;;;;5113719;28;20092;-60
2023/12/15 07:02:21;;;;;;;10.75;3.70;;;4.50;99.90;;;;;;5113516;28;20035;-60
2023/12/15 07:04:47;;;;;;;18.92;4.45;;;4.40;99.90;;;;;;5093126;28;20050;-60
2023/12/15 07:07:12;;;;;;;14.98;4.70;;;4.40;99.90;;;;;;5108982;28;20028;-59
2023/12/15 07:09:38;;;;;;;23.02;6.45;;;4.40;99.90;;;;;;5109319;28;20043;-59
2023/12/15 07:12:04;;;;;;;18.90;5.68;;;4.40;99.90;;;;;;5113516;28;20426;-60
2023/12/15 07:14:31;;;;;;;20.95;5.57;;;4.40;99.90;;;;;;5079007;28;20074;-60
2023/12/15 07:16:57;;;;;;;15.35;6.05;;;4.30;99.90;;;;;;5096160;28;20042;-60
2023/12/15 07:19:23;;;;;;;24.25;7.07;;;4.30;99.90;;;;;;5095836;28;20148;-60
2023/12/15 07:21:51;;;;;;;24.77;8.40;;;4.40;99.90;;;;;;5096604;28;20043;-60
2023/12/15 07:24:20;;;;;;;24.52;7.28;;;4.40;99.90;;;;;;5130773;28;20043;-60
2023/12/15 07:26:46;;;;;;;29.55;9.43;;;4.40;99.90;;;;;;5113127;28;20043;-60
2023/12/15 07:29:13;;;;;;;29.02;9.85;;;4.40;99.90;;;;;;5113182;28;20472;-60
2023/12/15 07:31:39;;;;;;;23.25;7.63;;;4.50;99.90;;;;;;5113096;28;20039;-59
2023/12/15 07:34:05;;;;;;;36.67;10.88;;;4.40;99.90;;;;;;5107037;28;20169;-60
2023/12/15 07:36:31;;;;;;;25.75;8.77;;;4.40;99.90;;;;;;5110753;27;20161;-59
2023/12/15 07:38:57;;;;;;;24.85;7.93;;;4.50;99.90;;;;;;5116737;27;20488;-60
2023/12/15 07:41:23;;;;;;;26.73;8.23;;;4.50;99.90;;;;;;5101057;27;20118;-59
2023/12/15 07:43:49;;;;;;;18.90;7.35;;;4.50;99.90;;;;;;5117082;27;20088;-59
2023/12/15 07:46:16;;;;;;;21.67;7.95;;;4.50;99.90;;;;;;5116432;27;20096;-60
2023/12/15 07:48:42;;;;;;;20.65;8.20;;;4.50;99.90;;;;;;5117415;27;20050;-60
2023/12/15 07:51:18;;;;;;;21.85;7.45;;;4.40;99.90;;;;;;5116368;27;20050;-60
2023/12/15 07:53:46;;;;;;;29.48;7.95;;;4.50;99.90;;;;;;5116973;27;20035;-60
2023/12/15 07:56:22;;;;;;;26.58;7.30;;;4.50;99.90;;;;;;5100108;27;20035;-60
2023/12/15 07:58:51;;;;;;;26.77;8.18;;;4.60;99.90;;;;;;5116423;27;20039;-60
2023/12/15 08:01:19;;;;;;;25.27;6.45;;;4.50;99.90;;;;;;5114249;27;20066;-60
2023/12/15 08:03:45;;;;;;;17.65;6.65;;;4.60;99.90;;;;;;5100613;27;20096;-60
2023/12/15 08:06:15;;;;;;;26.13;7.57;;;4.60;99.90;;;;;;5121960;27;20063;-60
2023/12/15 08:08:41;;;;;;;24.25;8.02;;;4.50;99.90;;;;;;5130415;27;20429;-59
2023/12/15 08:11:09;;;;;;;23.27;5.88;;;4.50;99.90;;;;;;5118252;27;20529;-60
2023/12/15 08:13:35;;;;;;;29.58;6.93;;;4.50;99.90;;;;;;5116022;27;20580;-60
2023/12/15 08:16:03;;;;;;;24.85;6.28;;;4.50;99.90;;;;;;5120446;27;20042;-60
2023/12/15 08:18:29;;;;;;;22.13;5.93;;;4.40;99.90;;;;;;5119705;27;20556;-60
2023/12/15 08:20:54;;;;;;;28.25;7.78;;;4.60;99.90;;;;;;5114831;27;20080;-60
2023/12/15 08:23:20;;;;;;;29.33;6.35;;;4.60;99.90;;;;;;5113608;27;20035;-60
2023/12/15 08:25:47;;;;;;;22.15;5.78;;;4.60;99.90;;;;;;5112302;27;20514;-60
2023/12/15 08:28:13;;;;;;;19.27;5.32;;;4.50;99.90;;;;;;5097450;27;20039;-60
2023/12/15 08:30:39;;;;;;;16.80;5.75;;;4.60;99.90;;;;;;5114735;27;20452;-60
2023/12/15 08:33:05;;;;;;;25.58;6.25;;;4.60;99.90;;;;;;5110564;27;20847;-60
2023/12/15 08:35:31;;;;;;;19.40;4.70;;;4.70;99.90;;;;;;5112203;27;20764;-60
2023/12/15 08:37:57;;;;;;;19.42;6.47;;;4.60;99.90;;;;;;5096122;27;20039;-60
2023/12/15 08:40:23;;;;;;;22.85;5.35;;;4.60;99.90;;;;;;5113494;27;20058;-60
2023/12/15 08:42:49;;;;;;;20.45;5.47;;;4.60;99.90;;;;;;5112826;27;20051;-60
2023/12/15 08:45:15;;;;;;;22.45;5.53;;;4.70;99.90;;;;;;5113698;27;20043;-60
2023/12/15 08:47:41;;;;;;;22.02;6.10;;;4.80;99.90;;;;;;5113094;27;20046;-60
2023/12/15 08:50:07;;;;;;;27.73;6.78;;;4.80;99.90;;;;;;5112189;27;20529;-60
2023/12/15 08:52:33;;;;;;;19.30;7.10;;;4.80;99.90;;;;;;5113783;27;20035;-59
2023/12/15 08:54:58;;;;;;;23.58;6.57;;;4.80;99.90;;;;;;5113529;27;20042;-60
2023/12/15 08:57:24;;;;;;;28.80;7.35;;;5.00;99.90;;;;;;5113032;27;20043;-60
2023/12/15 08:59:50;;;;;;;20.05;6.07;;;5.00;99.90;;;;;;5113371;27;20043;-60
2023/12/15 09:02:15;;;;;;;26.98;6.43;;;5.00;99.90;;;;;;5113350;27;20043;-60
2023/12/15 09:04:41;;;;;;;19.58;5.68;;;5.00;99.90;;;;;;5114631;27;20543;-60
2023/12/15 09:07:07;;;;;;;20.13;6.68;;;5.10;99.90;;;;;;5131218;27;20122;-60
2023/12/15 09:09:34;;;;;;;21.90;6.13;;;5.10;99.90;;;;;;5116744;27;20043;-60
2023/12/15 09:12:00;;;;;;;24.27;6.00;;;5.20;99.90;;;;;;5112927;27;20051;-60
2023/12/15 09:14:28;;;;;;;21.42;6.00;;;5.20;99.90;;;;;;5114408;27;20095;-60
2023/12/15 09:16:55;;;;;;;27.58;7.03;;;5.20;99.90;;;;;;5113603;27;20050;-60
2023/12/15 09:19:21;;;;;;;24.98;6.97;;;5.30;99.90;;;;;;5112340;27;20047;-60
2023/12/15 09:21:47;;;;;;;32.58;8.55;;;5.40;99.90;;;;;;5113728;27;20043;-59
2023/12/15 09:24:14;;;;;;;29.15;7.85;;;5.50;99.90;;;;;;5111343;27;20046;-60
2023/12/15 09:26:42;;;;;;;27.58;7.20;;;5.40;99.90;;;;;;5113115;27;20057;-60
2023/12/15 09:29:08;;;;;;;23.15;7.10;;;5.50;99.90;;;;;;5121549;27;20051;-59
2023/12/15 09:31:35;;;;;;;28.25;7.72;;;5.60;99.90;;;;;;5111799;27;20042;-59
2023/12/15 09:34:00;;;;;;;31.27;8.20;;;5.70;99.90;;;;;;5113559;27;20053;-59
2023/12/15 09:36:26;;;;;;;27.98;7.68;;;5.60;99.90;;;;;;5112280;27;20043;-59
2023/12/15 09:38:53;;;;;;;26.40;7.30;;;5.60;99.90;;;;;;5111693;27;20043;-59
2023/12/15 09:41:22;;;;;;;26.77;7.30;;;5.80;99.90;;;;;;5114324;27;20434;-59
2023/12/15 09:43:48;;;;;;;26.65;8.45;;;5.80;99.90;;;;;;5113227;27;20031;-60
2023/12/15 09:46:15;;;;;;;21.48;6.85;;;5.80;99.90;;;;;;5127954;27;20046;-60
2023/12/15 09:48:41;;;;;;;24.77;8.60;;;6.00;99.90;;;;;;5130217;27;20514;-60
2023/12/15 09:51:15;;;;;;;38.17;13.30;;;6.10;99.90;;;;;;5129127;27;20753;-61
2023/12/15 09:53:46;;;;;;;37.00;12.15;;;6.20;99.90;;;;;;5129515;27;20039;-61
2023/12/15 09:56:12;;;;;;;34.15;9.55;;;6.30;99.90;;;;;;5130080;27;20491;-61
2023/12/15 09:58:38;;;;;;;29.75;7.70;;;6.50;99.90;;;;;;5127473;27;20039;-61
2023/12/15 10:01:04;;;;;;;26.98;7.43;;;6.60;99.90;;;;;;5128983;27;20062;-61
2023/12/15 10:03:31;;;;;;;24.30;6.30;;;6.80;99.90;;;;;;5122588;27;20071;-61
2023/12/15 10:05:57;;;;;;;23.17;7.53;;;7.00;99.90;;;;;;5131111;27;20088;-62
2023/12/15 10:08:25;;;;;;;22.83;7.18;;;7.10;99.90;;;;;;5111980;27;20047;-62
2023/12/15 10:10:51;;;;;;;25.70;7.07;;;7.20;99.90;;;;;;5109406;27;20131;-62
2023/12/15 10:13:17;;;;;;;30.67;8.05;;;7.20;99.90;;;;;;5078125;28;20055;-62
2023/12/15 10:15:43;;;;;;;21.65;7.25;;;7.30;99.90;;;;;;5100757;27;20506;-61
2023/12/15 10:18:09;;;;;;;25.85;8.38;;;7.40;99.90;;;;;;5111260;27;20499;-61
2023/12/15 10:20:35;;;;;;;29.73;8.25;;;7.50;99.90;;;;;;5113940;27;20066;-61
2023/12/15 10:23:06;;;;;;;29.02;8.05;;;7.50;99.90;;;;;;5114421;27;20047;-61
2023/12/15 10:25:32;;;;;;;23.15;6.90;;;7.60;99.90;;;;;;5113996;27;20035;-62
2023/12/15 10:27:59;;;;;;;33.95;8.15;;;7.60;99.90;;;;;;5097429;27;20043;-61
2023/12/15 10:30:25;;;;;;;35.90;7.97;;;7.70;99.90;;;;;;5114069;27;20100;-60
2023/12/15 10:32:53;;;;;;;23.58;6.97;;;7.70;99.90;;;;;;5115157;27;20043;-61
2023/12/15 10:35:21;;;;;;;24.17;7.03;;;7.70;99.90;;;;;;5113488;27;20078;-61
2023/12/15 10:37:47;;;;;;;29.48;7.70;;;7.80;99.90;;;;;;5097563;27;20044;-61
2023/12/15 10:40:13;;;;;;;23.23;7.68;;;7.80;99.90;;;;;;5114714;27;20052;-61
2023/12/15 10:42:41;;;;;;;33.38;7.53;;;7.90;99.90;;;;;;5112892;27;20118;-61
2023/12/15 10:45:08;;;;;;;26.85;8.07;;;7.90;99.90;;;;;;5114271;28;20065;-61
2023/12/15 10:47:34;;;;;;;20.20;7.55;;;7.90;99.90;;;;;;5114622;28;20074;-61
2023/12/15 10:50:01;;;;;;;22.77;8.05;;;8.00;99.90;;;;;;5114375;28;20077;-61
2023/12/15 10:52:27;;;;;;;31.98;7.28;;;8.10;99.90;;;;;;5114543;28;20031;-61
2023/12/15 10:54:54;;;;;;;26.35;7.30;;;8.10;99.90;;;;;;5114503;28;20039;-61
2023/12/15 10:57:21;;;;;;;29.70;7.65;;;8.10;99.90;;;;;;5113652;28;20080;-61
2023/12/15 10:59:48;;;;;;;25.95;7.20;;;8.20;99.90;;;;;;5114151;28;20114;-61
2023/12/15 11:02:17;;;;;;;28.02;8.20;;;8.20;99.90;;;;;;5114428;28;20043;-61
2023/12/15 11:04:43;;;;;;;23.85;6.97;;;8.20;99.90;;;;;;5113683;28;20039;-61
2023/12/15 11:07:09;;;;;;;24.30;6.93;;;8.20;99.90;;;;;;5114828;28;20084;-61
2023/12/15 11:09:36;;;;;;;30.73;7.25;;;8.30;99.90;;;;;;5116197;27;20046;-61
2023/12/15 11:12:29;;;;;;;29.98;9.73;;;8.30;99.90;;;;;;5118229;27;20054;-61
2023/12/15 11:15:08;;;;;;;33.08;7.95;;;8.40;99.90;;;;;;5119094;27;20047;-61
2023/12/15 11:17:48;;;;;;;25.38;6.30;;;8.40;99.90;;;;;;5117412;27;20148;-61
2023/12/15 11:20:20;;;;;;;25.90;8.43;;;8.40;99.90;;;;;;5101622;27;20510;-61
2023/12/15 11:23:06;;;;;;;26.17;7.20;;;8.40;99.90;;;;;;5118529;27;20039;-61
2023/12/15 11:25:35;;;;;;;24.42;7.90;;;8.40;99.90;;;;;;5117430;27;20078;-61
2023/12/15 11:28:11;;;;;;;30.38;7.53;;;8.50;99.90;;;;;;5118861;27;20069;-61
2023/12/15 11:30:41;;;;;;;23.20;7.53;;;8.50;99.90;;;;;;5101053;27;20050;-61
2023/12/15 11:33:47;;;;;;;38.58;8.15;;;8.60;99.90;;;;;;5117578;27;20078;-61
2023/12/15 11:36:13;;;;;;;21.80;7.13;;;8.60;99.90;;;;;;5117702;27;20072;-61
2023/12/15 11:38:40;;;;;;;27.13;8.95;;;8.60;99.90;;;;;;5117119;27;20039;-61
2023/12/15 11:41:07;;;;;;;18.08;6.15;;;8.70;99.90;;;;;;5118373;27;20043;-61
2023/12/15 11:43:36;;;;;;;27.73;7.72;;;8.70;99.90;;;;;;5118097;27;20039;-61
2023/12/15 11:46:03;;;;;;;26.30;6.03;;;8.70;99.90;;;;;;5117384;27;20035;-61
2023/12/15 11:48:29;;;;;;;22.23;6.95;;;8.70;99.90;;;;;;5118324;27;20050;-62
2023/12/15 11:50:56;;;;;;;24.73;6.53;;;8.80;99.90;;;;;;5118169;27;20043;-60
2023/12/15 11:53:22;;;;;;;31.52;7.03;;;8.80;99.90;;;;;;5124136;27;20050;-62
2023/12/15 11:55:52;;;;;;;24.73;6.47;;;8.90;99.90;;;;;;5119668;27;20043;-61
2023/12/15 11:58:18;;;;;;;27.67;7.07;;;8.90;99.90;;;;;;5117808;27;20043;-61
2023/12/15 12:00:45;;;;;;;26.05;7.93;;;8.90;99.90;;;;;;5113296;28;20489;-61
2023/12/15 12:03:13;;;;;;;22.17;6.55;;;8.90;99.90;;;;;;5097388;28;20040;-61
2023/12/15 12:05:40;;;;;;;24.48;6.32;;;9.00;99.90;;;;;;5114289;28;20047;-61
2023/12/15 12:08:07;;;;;;;20.30;7.90;;;9.00;99.90;;;;;;5113427;28;20051;-61
2023/12/15 12:10:40;;;;;;;30.67;6.70;;;9.00;99.90;;;;;;5114235;28;20043;-61
2023/12/15 12:13:09;;;;;;;21.38;5.78;;;9.10;99.90;;;;;;5113542;28;20399;-61
2023/12/15 12:15:52;;;;;;;21.77;7.35;;;9.00;99.90;;;;;;5113135;28;20097;-61
2023/12/15 12:18:28;;;;;;;27.83;6.28;;;9.10;99.90;;;;;;5113591;28;20038;-60
2023/12/15 12:21:02;;;;;;;25.35;6.30;;;9.10;99.90;;;;;;5110901;28;20059;-61
2023/12/15 12:23:28;;;;;;;21.90;6.47;;;9.10;99.90;;;;;;5096547;28;20488;-61
2023/12/15 12:25:58;;;;;;;18.88;6.63;;;9.10;99.90;;;;;;5095398;28;20047;-61
2023/12/15 12:28:47;;;;;;;22.55;7.00;;;9.10;99.90;;;;;;5112512;28;20043;-61
2023/12/15 12:31:15;;;;;;;21.05;5.95;;;9.20;99.90;;;;;;5096603;28;20078;-62
2023/12/15 12:33:40;;;;;;;24.23;7.00;;;9.10;99.90;;;;;;5113165;28;20054;-62
2023/12/15 12:36:08;;;;;;;21.27;5.00;;;9.10;99.90;;;;;;5112389;28;20040;-61
2023/12/15 12:38:37;;;;;;;19.50;5.80;;;9.10;99.90;;;;;;5126091;27;20048;-61
2023/12/15 12:41:05;;;;;;;18.17;6.90;;;9.10;99.90;;;;;;5114006;28;20361;-61